Airfield :







YOU CAN JOIN US ON...

 
LOGIN :

Register | Disclaimer

   EN    FR    IT 

 









Legend :    VFR   Marginal VFR   IFR   Intensive IFR   Very Intensive IFR
Visi :
Ceiling :
>= 8 km
>= 3000ft
5 to 8 km
1000 to 3000 ft
1500m to 5 km
500 to 1000 ft
800 to 1500m
200 to 500 ft
< 800m
< 200 ft
Symbols :   Thunderstorms  Fog  Heavy snow  Heavy precipitations  Wind > 20 kt







- Airport Elevation : 586 ft
- IATA code : YRJ


CYRJ - Roberval

CURRENT METAR :
  • 161400Z 29012G18KT 25SM FEW015 BKN034 BKN052 13/09 A3001 RMK CF1SC4SC2 SLP170

EXPIRED METARs :
  • 161300Z 30012G17KT 12SM FEW015 BKN032 OVC046 12/09 A3001 RMK CF1SC5SC3 CF TR SLP168
  • 161200Z 30010KT 25SM FEW014 BKN022 OVC034 12/09 A3000 RMK CF1SC5SC3 CF TR SLP165

TAF TAF CYRJ
Valid from the 16 at 14:00 until the 17 at 02:00 UTC


161345Z 1614/1702 30010G20KT P6SM SCT020 OVC030
TEMPO 1614/1702 5SM -SHRA BR OVC020 RMK NXT FCST BY 162000Z
No reported NOTAMs for that airfield.



MET'MAP, your aeronautical weather chart ! - Copyright ORBIFLY December 2007 - Disclaimer

ORBIFLY MET'MAP TEAM :

Programming & Development : Alexandra Zaïnal
Concept & Development : Baudouin d'Aumeries
Co-Development & Prog : Marc-Olivier Méhu
Technical & hardware support : Manuel Goepfert

Contact : metmap@orbifly.com




SOURCES & CREDITS :

   NOAA